Miguel Oliver — ECLX — position and weather

sailwx.info

Track history (hours):
 
Tides and Currents Weather Stations Pressure Air Temp Water Temp Dewpoint Dewpoint Depression Visibility Wind Speed Wind Dir Waves Ship Positions

Oceanographic research ship Miguel Oliver (Spain)

Ship's website: http://www.mapa.es/es/pesca/pags/miguel_web/index.htm

Last reported at 2014-Dec-20 10:09 UTC. Time now 2014-Dec-23 00:55 UTC.
Position N 43°47' W 003°25'.

Length 70 m; draft 4.8 m.

Type: Other ship. MMSI: 225322000.

Date/timePositionNaut miles runAvg speedWind from/ knotsBaromVisibWave heightAir tempDewpointWater temp
2014-Dec-20 10:09N 43°47' W 003°25'610.4
2014-Dec-20 09:33N 43°45' W 003°16'1010.2
2014-Dec-20 08:33N 43°41' W 003°03'1010.1
2014-Dec-20 07:33N 43°37' W 002°51'10 9.5
2014-Dec-20 06:32N 43°34' W 002°38'4 2.8
2014-Dec-20 05:07N 43°34' W 002°33'4 6.9
2014-Dec-20 04:31N 43°34' W 002°38'5 4.7
2014-Dec-20 03:33N 43°34' W 002°45'7 6.8
2014-Dec-20 02:33N 43°34' W 002°54'2 1.8
2014-Dec-20 01:34N 43°34' W 002°56'6 6.3
2014-Dec-20 00:33N 43°34' W 003°05'0 0.5
2014-Dec-19 23:33N 43°34' W 003°06'6 5.6
2014-Dec-19 22:33N 43°35' W 002°58'5 5.5
2014-Dec-19 21:33N 43°35' W 002°50'4 2.0
2014-Dec-19 19:33N 43°37' W 002°46'2 2.3
2014-Dec-19 18:33N 43°38' W 002°48'6 6.0
2014-Dec-19 17:33N 43°35' W 002°41'1 0.3
2014-Dec-19 13:31N 43°35' W 002°43'6 0.2
2014-Dec-18 00:34N 43°36' W 002°34'3 3.2
2014-Dec-17 23:33N 43°36' W 002°30'8 7.6
2014-Dec-17 22:28N 43°36' W 002°41'7 7.7
2014-Dec-17 21:34N 43°36' W 002°51'  
Track history (hours):
 
Tides and Currents Weather Stations Pressure Air Temp Water Temp Dewpoint Dewpoint Depression Visibility Wind Speed Wind Dir Waves Ship Positions

Oceanographic research ship Miguel Oliver (Spain)

Ship's website: http://www.mapa.es/es/pesca/pags/miguel_web/index.htm

Last reported at 2014-Dec-20 10:09 UTC. Time now 2014-Dec-23 00:55 UTC.
Position N 43°47' W 003°25'.

Length 70 m; draft 4.8 m.

Type: Other ship. MMSI: 225322000.

Date/timePositionNaut miles runAvg speedWind from/ knotsBaromVisibWave heightAir tempDewpointWater temp
2014-Dec-20 10:09N 43°47' W 003°25'610.4
2014-Dec-20 09:33N 43°45' W 003°16'1010.2
2014-Dec-20 08:33N 43°41' W 003°03'1010.1
2014-Dec-20 07:33N 43°37' W 002°51'10 9.5
2014-Dec-20 06:32N 43°34' W 002°38'4 2.8
2014-Dec-20 05:07N 43°34' W 002°33'4 6.9
2014-Dec-20 04:31N 43°34' W 002°38'5 4.7
2014-Dec-20 03:33N 43°34' W 002°45'7 6.8
2014-Dec-20 02:33N 43°34' W 002°54'2 1.8
2014-Dec-20 01:34N 43°34' W 002°56'6 6.3
2014-Dec-20 00:33N 43°34' W 003°05'0 0.5
2014-Dec-19 23:33N 43°34' W 003°06'6 5.6
2014-Dec-19 22:33N 43°35' W 002°58'5 5.5
2014-Dec-19 21:33N 43°35' W 002°50'4 2.0
2014-Dec-19 19:33N 43°37' W 002°46'2 2.3
2014-Dec-19 18:33N 43°38' W 002°48'6 6.0
2014-Dec-19 17:33N 43°35' W 002°41'1 0.3
2014-Dec-19 13:31N 43°35' W 002°43'6 0.2
2014-Dec-18 00:34N 43°36' W 002°34'3 3.2
2014-Dec-17 23:33N 43°36' W 002°30'8 7.6
2014-Dec-17 22:28N 43°36' W 002°41'7 7.7
2014-Dec-17 21:34N 43°36' W 002°51'  

Dump ship's entire track history